Time;durP1;ratioP1;P1;durP2;ratioP2;P2;SDS_P1;SDS_P2;PMS_P1;PMS_P2;Temp;Humidity;BMP_temperature;BMP_pressure;BME280_temperature;BME280_humidity;BME280_pressure;Samples;Min_cycle;Max_cycle;Signal;HPM_P1;HPM_P2
2023/06/29 00:00:24;;;;;;;61.50;39.75;;;18.40;99.90;;;;;;5038660;28;20103;-74
2023/06/29 00:02:49;;;;;;;63.45;40.72;;;18.30;99.90;;;;;;5038332;28;20398;-74
2023/06/29 00:05:16;;;;;;;62.85;40.10;;;18.30;99.90;;;;;;5038610;28;20051;-74
2023/06/29 00:07:42;;;;;;;63.28;40.17;;;18.30;99.90;;;;;;5039097;28;20058;-73
2023/06/29 00:10:09;;;;;;;58.40;38.70;;;18.30;99.90;;;;;;5038153;28;20047;-73
2023/06/29 00:12:39;;;;;;;62.38;38.38;;;18.30;99.90;;;;;;4971747;28;20116;-73
2023/06/29 00:15:05;;;;;;;57.83;37.55;;;18.30;99.90;;;;;;5038553;28;20126;-73
2023/06/29 00:17:30;;;;;;;60.42;37.60;;;18.30;99.90;;;;;;5038460;28;20053;-73
2023/06/29 00:19:56;;;;;;;63.80;39.85;;;18.30;99.90;;;;;;4971543;28;20114;-73
2023/06/29 00:22:22;;;;;;;54.00;37.80;;;18.30;99.90;;;;;;4971546;28;20039;-74
2023/06/29 00:24:54;;;;;;;63.92;38.28;;;18.20;99.90;;;;;;5038497;28;20058;-73
2023/06/29 00:27:21;;;;;;;54.72;36.00;;;18.20;99.90;;;;;;5038181;28;20121;-74
2023/06/29 00:29:46;;;;;;;59.70;37.53;;;18.30;99.90;;;;;;4971430;28;20050;-74
2023/06/29 00:32:13;;;;;;;61.50;39.08;;;18.30;99.90;;;;;;5038382;28;20055;-74
2023/06/29 00:34:39;;;;;;;58.45;38.35;;;18.20;99.90;;;;;;4971411;28;20394;-73
2023/06/29 00:37:04;;;;;;;62.45;39.70;;;18.30;99.90;;;;;;5037974;28;20039;-73
2023/06/29 00:39:31;;;;;;;63.55;39.85;;;18.10;99.90;;;;;;5038113;28;20055;-74
2023/06/29 00:41:57;;;;;;;64.05;39.22;;;18.20;99.90;;;;;;5041413;28;20047;-74
2023/06/29 00:44:22;;;;;;;59.70;40.17;;;18.20;99.90;;;;;;5041564;28;20050;-73
2023/06/29 00:46:50;;;;;;;58.92;38.20;;;18.20;99.90;;;;;;5041630;28;20031;-73
2023/06/29 00:49:16;;;;;;;64.47;42.25;;;18.20;99.90;;;;;;4974796;28;20089;-74
2023/06/29 00:51:46;;;;;;;68.25;39.92;;;18.20;99.90;;;;;;4974821;28;20043;-73
2023/06/29 00:54:11;;;;;;;67.10;41.53;;;18.10;99.90;;;;;;5041818;28;20047;-74
2023/06/29 00:56:37;;;;;;;63.75;42.55;;;18.10;99.90;;;;;;5041504;28;20398;-73
2023/06/29 00:59:03;;;;;;;59.20;40.15;;;18.10;99.90;;;;;;5041766;28;20518;-73
2023/06/29 01:01:28;;;;;;;72.72;44.33;;;18.10;99.90;;;;;;4974441;28;20047;-74
2023/06/29 01:03:57;;;;;;;65.32;42.92;;;18.10;99.90;;;;;;4974075;28;20093;-73
2023/06/29 01:06:31;;;;;;;67.93;41.65;;;18.20;99.90;;;;;;5041406;28;20046;-73
2023/06/29 01:09:05;;;;;;;67.88;41.35;;;18.10;99.90;;;;;;5041172;28;20066;-74
2023/06/29 01:11:34;;;;;;;67.07;42.80;;;18.20;99.90;;;;;;4974208;28;20406;-73
2023/06/29 01:14:03;;;;;;;70.57;43.05;;;18.20;99.90;;;;;;4974060;28;20082;-73
2023/06/29 01:16:32;;;;;;;68.60;41.50;;;18.00;99.90;;;;;;4974422;28;20053;-73
2023/06/29 01:19:01;;;;;;;75.03;42.78;;;18.00;99.90;;;;;;5041358;28;20070;-73
2023/06/29 01:21:30;;;;;;;68.78;41.42;;;18.20;99.90;;;;;;5040974;28;20129;-74
2023/06/29 01:23:58;;;;;;;65.40;42.75;;;18.20;99.90;;;;;;4973909;28;20445;-74
2023/06/29 01:26:23;;;;;;;75.50;43.65;;;18.00;99.90;;;;;;5040992;28;20056;-73
2023/06/29 01:28:50;;;;;;;66.05;41.03;;;18.10;99.90;;;;;;4973840;28;20043;-74
2023/06/29 01:31:16;;;;;;;67.78;40.70;;;18.10;99.90;;;;;;5041006;28;20055;-74
2023/06/29 01:33:42;;;;;;;68.07;43.40;;;18.10;99.90;;;;;;4973936;28;20046;-74
2023/06/29 01:36:25;;;;;;;67.30;42.10;;;18.00;99.90;;;;;;4973918;28;20403;-74
2023/06/29 01:39:01;;;;;;;74.20;42.17;;;18.00;99.90;;;;;;5041085;28;20482;-74
2023/06/29 01:41:32;;;;;;;76.57;43.72;;;18.00;99.90;;;;;;4973897;28;20046;-74
2023/06/29 01:44:02;;;;;;;76.68;42.63;;;18.20;99.90;;;;;;5040527;28;20062;-73
2023/06/29 01:46:28;;;;;;;74.85;43.03;;;18.10;99.90;;;;;;5041015;28;20039;-73
2023/06/29 01:48:54;;;;;;;84.07;43.95;;;18.00;99.90;;;;;;4973870;28;20051;-73
2023/06/29 01:51:21;;;;;;;74.65;42.53;;;18.20;99.90;;;;;;4973448;28;20042;-73
2023/06/29 01:53:49;;;;;;;84.65;44.65;;;18.20;99.90;;;;;;4973131;28;20530;-74
2023/06/29 01:56:15;;;;;;;86.95;46.60;;;18.20;99.90;;;;;;5040820;28;20134;-73
2023/06/29 01:58:40;;;;;;;83.35;44.92;;;18.20;99.90;;;;;;5040323;28;20461;-73
2023/06/29 02:01:06;;;;;;;81.38;44.15;;;18.20;99.90;;;;;;4973579;28;20043;-73
2023/06/29 02:03:32;;;;;;;82.30;44.70;;;18.30;99.90;;;;;;5040227;28;20051;-74
2023/06/29 02:05:58;;;;;;;91.38;47.63;;;18.20;99.90;;;;;;5040109;28;20445;-73
2023/06/29 02:08:23;;;;;;;86.30;47.08;;;18.20;99.90;;;;;;4973584;28;20049;-73
2023/06/29 02:10:49;;;;;;;81.53;46.17;;;18.20;99.90;;;;;;5039828;28;20051;-73
2023/06/29 02:13:16;;;;;;;78.13;46.10;;;18.10;99.90;;;;;;4973654;28;20206;-73
2023/06/29 02:15:42;;;;;;;74.50;44.65;;;18.30;99.90;;;;;;5040166;28;20046;-74
2023/06/29 02:18:08;;;;;;;81.90;44.53;;;18.30;99.90;;;;;;4972998;28;20085;-73
2023/06/29 02:20:33;;;;;;;85.70;43.05;;;18.20;99.90;;;;;;5039983;28;20053;-73
2023/06/29 02:22:59;;;;;;;80.95;45.20;;;18.30;99.90;;;;;;5039761;28;20047;-73
2023/06/29 02:25:24;;;;;;;84.35;45.67;;;18.20;99.90;;;;;;4973130;28;20078;-73
2023/06/29 02:27:50;;;;;;;85.18;45.38;;;18.20;99.90;;;;;;4973081;28;20046;-73
2023/06/29 02:30:16;;;;;;;80.25;42.67;;;18.20;99.90;;;;;;5039862;28;20513;-73
2023/06/29 02:32:41;;;;;;;80.68;43.78;;;18.10;99.90;;;;;;5039623;28;20046;-73
2023/06/29 02:35:07;;;;;;;79.38;42.40;;;18.10;99.90;;;;;;5039513;28;20049;-73
2023/06/29 02:37:33;;;;;;;75.03;41.63;;;18.20;99.90;;;;;;5039776;28;20046;-73
2023/06/29 02:39:59;;;;;;;84.47;43.30;;;18.20;99.90;;;;;;5039522;28;20047;-73
2023/06/29 02:42:24;;;;;;;70.40;42.10;;;18.20;99.90;;;;;;5039435;28;20051;-73
2023/06/29 02:44:50;;;;;;;77.10;42.55;;;18.20;99.90;;;;;;5039500;28;20043;-74
2023/06/29 02:47:15;;;;;;;76.53;42.60;;;18.20;99.90;;;;;;5039723;28;20126;-73
2023/06/29 02:49:41;;;;;;;85.88;45.38;;;18.20;99.90;;;;;;5039156;28;20517;-74
2023/06/29 02:52:07;;;;;;;80.20;41.85;;;18.10;99.90;;;;;;4972801;28;20044;-73
2023/06/29 02:54:32;;;;;;;77.55;41.47;;;18.10;99.90;;;;;;4973117;28;20097;-73
2023/06/29 02:56:58;;;;;;;82.22;45.42;;;18.20;99.90;;;;;;5039448;28;20049;-73
2023/06/29 02:59:24;;;;;;;84.60;45.17;;;18.10;99.90;;;;;;5039215;28;20039;-73
2023/06/29 03:01:49;;;;;;;85.80;44.80;;;18.20;99.90;;;;;;4972467;28;20042;-73
2023/06/29 03:04:15;;;;;;;89.70;46.30;;;18.10;99.90;;;;;;4972577;28;20120;-73
2023/06/29 03:06:40;;;;;;;87.57;45.72;;;18.10;99.90;;;;;;5039174;28;20046;-73
2023/06/29 03:09:08;;;;;;;98.00;46.97;;;18.30;99.90;;;;;;5038782;28;20137;-73
2023/06/29 03:11:34;;;;;;;97.80;48.25;;;18.10;99.90;;;;;;5039086;28;20130;-73
2023/06/29 03:13:59;;;;;;;98.35;49.03;;;18.30;99.90;;;;;;5039064;28;20126;-73
2023/06/29 03:16:25;;;;;;;104.00;49.58;;;18.10;99.90;;;;;;4972302;28;20093;-73
2023/06/29 03:18:51;;;;;;;118.45;52.60;;;18.30;99.90;;;;;;5038862;28;20308;-73
2023/06/29 03:21:19;;;;;;;126.97;54.45;;;18.20;99.90;;;;;;5038621;28;20084;-73
2023/06/29 03:23:45;;;;;;;124.93;55.50;;;18.10;99.90;;;;;;5038045;28;20054;-73
2023/06/29 03:26:11;;;;;;;127.38;55.05;;;18.20;99.90;;;;;;4970801;28;20043;-73
2023/06/29 03:28:37;;;;;;;129.38;56.92;;;18.30;99.90;;;;;;5038838;28;20107;-74
2023/06/29 03:31:02;;;;;;;137.57;56.63;;;18.10;99.90;;;;;;5038611;28;20548;-74
2023/06/29 03:33:28;;;;;;;153.20;56.92;;;18.10;99.90;;;;;;4971935;28;20047;-74
2023/06/29 03:35:54;;;;;;;136.65;58.97;;;18.20;99.90;;;;;;5038629;28;20088;-74
2023/06/29 03:38:19;;;;;;;152.77;59.55;;;18.30;99.90;;;;;;5038274;28;20051;-74
2023/06/29 03:40:45;;;;;;;154.40;60.50;;;18.20;99.90;;;;;;5038426;28;20034;-74
2023/06/29 03:43:10;;;;;;;158.60;63.60;;;18.30;99.90;;;;;;5038359;28;20137;-74
2023/06/29 03:45:36;;;;;;;166.07;61.10;;;18.30;99.90;;;;;;5038227;28;20053;-74
2023/06/29 03:48:02;;;;;;;172.18;63.10;;;18.20;99.90;;;;;;4971664;28;20143;-74
2023/06/29 03:50:27;;;;;;;174.25;64.53;;;18.30;99.90;;;;;;5038689;28;20047;-73
2023/06/29 03:52:53;;;;;;;169.57;64.38;;;18.30;99.90;;;;;;4971894;28;20054;-73
2023/06/29 03:55:19;;;;;;;177.00;66.22;;;18.30;99.90;;;;;;5038271;28;20051;-73
2023/06/29 03:57:45;;;;;;;181.55;65.68;;;18.30;99.90;;;;;;5038359;28;20042;-73
2023/06/29 04:00:11;;;;;;;172.90;62.95;;;18.30;99.90;;;;;;4971545;28;20081;-74
2023/06/29 04:02:36;;;;;;;177.20;61.50;;;18.30;99.90;;;;;;5038569;28;20049;-74
2023/06/29 04:05:03;;;;;;;182.50;62.15;;;18.30;99.90;;;;;;5038240;28;20046;-74
2023/06/29 04:07:29;;;;;;;198.95;64.72;;;18.40;99.90;;;;;;5038533;28;20073;-74
2023/06/29 04:09:54;;;;;;;175.00;60.67;;;18.40;99.90;;;;;;5037990;28;20059;-73
2023/06/29 04:12:21;;;;;;;184.85;61.90;;;18.30;99.90;;;;;;5038185;28;20130;-74
2023/06/29 04:14:46;;;;;;;186.70;64.70;;;18.40;99.90;;;;;;5037974;28;20047;-74
2023/06/29 04:17:12;;;;;;;187.77;63.60;;;18.40;99.90;;;;;;4975095;28;20042;-74
2023/06/29 04:19:37;;;;;;;181.98;64.43;;;18.30;99.90;;;;;;5042213;28;20047;-74
2023/06/29 04:22:03;;;;;;;188.63;67.85;;;18.40;99.90;;;;;;5041785;28;20445;-74
2023/06/29 04:24:29;;;;;;;180.10;63.60;;;18.30;99.90;;;;;;5042023;28;20051;-74
2023/06/29 04:26:55;;;;;;;176.20;62.17;;;18.40;99.90;;;;;;5041786;28;20058;-73
2023/06/29 04:29:21;;;;;;;171.77;61.22;;;18.30;99.90;;;;;;5041919;28;20053;-73
2023/06/29 04:31:46;;;;;;;163.25;59.20;;;18.30;99.90;;;;;;4974783;28;20043;-73
2023/06/29 04:34:16;;;;;;;173.02;59.03;;;18.40;99.90;;;;;;5041671;28;20138;-74
2023/06/29 04:36:48;;;;;;;165.77;57.95;;;18.50;99.90;;;;;;5041888;28;20050;-74
2023/06/29 04:39:15;;;;;;;169.68;59.33;;;18.40;99.90;;;;;;5041913;28;20576;-74
2023/06/29 04:41:41;;;;;;;159.30;56.00;;;18.50;99.90;;;;;;5041827;28;20046;-74
2023/06/29 04:44:08;;;;;;;160.05;58.90;;;18.50;99.90;;;;;;4974596;28;20046;-74
2023/06/29 04:46:40;;;;;;;145.35;53.08;;;18.50;99.90;;;;;;4974643;28;20043;-74
2023/06/29 04:49:06;;;;;;;147.03;53.33;;;18.50;99.90;;;;;;5041729;28;20130;-74
2023/06/29 04:51:36;;;;;;;144.30;51.35;;;18.50;99.90;;;;;;4974455;28;20286;-74
2023/06/29 04:54:08;;;;;;;152.05;53.33;;;18.50;99.90;;;;;;4974510;28;20043;-74
2023/06/29 04:56:34;;;;;;;127.53;50.65;;;18.50;99.90;;;;;;4974212;28;20047;-74
2023/06/29 04:58:59;;;;;;;138.30;52.53;;;18.60;99.90;;;;;;4974206;28;20418;-74
2023/06/29 05:01:25;;;;;;;132.82;51.33;;;18.70;99.90;;;;;;4974442;28;20105;-74
2023/06/29 05:03:51;;;;;;;137.50;53.03;;;18.70;99.90;;;;;;4974156;28;20046;-74
2023/06/29 05:06:17;;;;;;;127.30;52.10;;;18.70;99.90;;;;;;5041195;28;20038;-74
2023/06/29 05:08:42;;;;;;;122.75;46.58;;;18.70;99.90;;;;;;5040910;28;20050;-74
2023/06/29 05:11:08;;;;;;;115.32;46.88;;;18.80;99.90;;;;;;4974093;28;20039;-74
2023/06/29 05:13:35;;;;;;;118.25;47.47;;;18.80;99.90;;;;;;5041197;28;20410;-74
2023/06/29 05:16:03;;;;;;;118.82;48.78;;;18.90;99.90;;;;;;4974214;28;20047;-74
2023/06/29 05:18:29;;;;;;;109.95;46.13;;;19.00;99.90;;;;;;5041114;28;20047;-74
2023/06/29 05:20:54;;;;;;;115.45;46.08;;;19.00;99.90;;;;;;4974003;28;20455;-74
2023/06/29 05:23:20;;;;;;;112.03;46.80;;;18.90;99.90;;;;;;4973798;28;20421;-73
2023/06/29 05:25:46;;;;;;;106.68;44.17;;;18.90;99.90;;;;;;5040987;28;20061;-73
2023/06/29 05:28:11;;;;;;;102.68;44.22;;;19.00;99.90;;;;;;4973077;28;20514;-74
2023/06/29 05:30:37;;;;;;;100.13;42.85;;;19.00;99.90;;;;;;5040929;28;20061;-74
2023/06/29 05:33:04;;;;;;;97.60;43.35;;;19.10;99.90;;;;;;5040953;28;20398;-74
2023/06/29 05:35:31;;;;;;;92.80;42.80;;;19.10;99.90;;;;;;5040724;28;20043;-74
2023/06/29 05:37:57;;;;;;;103.43;42.95;;;19.00;99.90;;;;;;4973824;28;20138;-74
2023/06/29 05:40:23;;;;;;;97.63;41.85;;;19.10;99.90;;;;;;5040978;28;20047;-74
2023/06/29 05:42:48;;;;;;;89.95;40.30;;;19.10;99.90;;;;;;5040506;28;20379;-74
2023/06/29 05:45:14;;;;;;;92.57;40.42;;;19.10;99.90;;;;;;4973863;28;20104;-73
2023/06/29 05:47:40;;;;;;;92.65;41.95;;;19.00;99.90;;;;;;5040474;28;20505;-73
2023/06/29 05:50:06;;;;;;;85.47;39.85;;;19.10;99.90;;;;;;4973437;28;20509;-73
2023/06/29 05:52:33;;;;;;;88.53;40.00;;;19.10;99.90;;;;;;5040377;28;20124;-74
2023/06/29 05:54:59;;;;;;;90.97;39.78;;;19.00;99.90;;;;;;5040245;28;20478;-73
2023/06/29 05:57:25;;;;;;;83.40;38.65;;;19.00;99.90;;;;;;4973560;28;20050;-74
2023/06/29 05:59:51;;;;;;;82.10;39.15;;;19.00;99.90;;;;;;5040006;28;20054;-73
2023/06/29 06:02:17;;;;;;;84.68;40.00;;;18.90;99.90;;;;;;5040107;28;20096;-74
2023/06/29 06:04:43;;;;;;;81.18;38.75;;;19.00;99.90;;;;;;5037168;28;20066;-73
2023/06/29 06:07:09;;;;;;;84.45;39.35;;;18.90;99.90;;;;;;5020196;28;20082;-74
2023/06/29 06:09:35;;;;;;;85.55;37.92;;;18.90;99.90;;;;;;4953669;29;20070;-73
2023/06/29 06:12:01;;;;;;;83.55;38.85;;;18.80;99.90;;;;;;5020058;28;20052;-74
2023/06/29 06:14:26;;;;;;;78.38;37.38;;;18.90;99.90;;;;;;5020061;28;20097;-74
2023/06/29 06:16:52;;;;;;;83.30;38.15;;;18.90;99.90;;;;;;4954040;28;20039;-74
2023/06/29 06:19:18;;;;;;;77.68;36.15;;;19.00;99.90;;;;;;5020223;28;20054;-74
2023/06/29 06:21:44;;;;;;;78.25;37.58;;;18.90;99.90;;;;;;5020184;28;20039;-74
2023/06/29 06:24:10;;;;;;;76.55;36.60;;;18.90;99.90;;;;;;5019858;28;20395;-74
2023/06/29 06:26:35;;;;;;;77.93;36.05;;;19.00;99.90;;;;;;5019908;28;20047;-74
2023/06/29 06:29:02;;;;;;;74.53;35.95;;;18.90;99.90;;;;;;5020127;28;20051;-74
2023/06/29 06:31:28;;;;;;;73.40;34.72;;;19.00;99.90;;;;;;5019726;28;20047;-74
2023/06/29 06:33:57;;;;;;;74.10;35.83;;;19.00;99.90;;;;;;5019934;28;20053;-74
2023/06/29 06:36:24;;;;;;;66.43;33.90;;;19.00;99.90;;;;;;5019621;28;20156;-74
2023/06/29 06:38:50;;;;;;;68.82;32.30;;;19.00;99.90;;;;;;5019595;28;20055;-74
2023/06/29 06:41:16;;;;;;;67.40;32.33;;;19.10;99.90;;;;;;5019457;28;20050;-74
2023/06/29 06:43:41;;;;;;;67.28;33.55;;;19.00;99.90;;;;;;4953486;29;20109;-74
2023/06/29 06:46:07;;;;;;;70.05;33.03;;;19.10;99.90;;;;;;5020055;28;20487;-74
2023/06/29 06:48:33;;;;;;;61.20;31.60;;;19.10;99.90;;;;;;5019706;28;20047;-74
2023/06/29 06:50:58;;;;;;;54.67;31.90;;;19.10;99.90;;;;;;5019712;28;20079;-73
2023/06/29 06:53:24;;;;;;;62.90;30.65;;;19.00;99.90;;;;;;5019375;28;20066;-73
2023/06/29 06:55:50;;;;;;;55.92;30.80;;;19.10;99.90;;;;;;4953278;28;20044;-73
2023/06/29 06:58:15;;;;;;;57.80;30.52;;;19.10;99.90;;;;;;4953086;29;20491;-73
2023/06/29 07:00:41;;;;;;;59.17;31.83;;;19.10;99.90;;;;;;5019413;28;20036;-73
2023/06/29 07:03:07;;;;;;;58.92;29.67;;;19.20;99.90;;;;;;5018974;28;20109;-73
2023/06/29 07:05:33;;;;;;;54.88;29.10;;;19.20;99.90;;;;;;5019307;28;20055;-73
2023/06/29 07:07:59;;;;;;;52.08;27.38;;;19.20;99.90;;;;;;4953232;29;20043;-73
2023/06/29 07:10:24;;;;;;;55.60;29.30;;;19.20;99.90;;;;;;5019251;28;20051;-73
2023/06/29 07:12:51;;;;;;;55.60;29.42;;;19.20;99.90;;;;;;5019499;28;20128;-73
2023/06/29 07:15:16;;;;;;;58.45;28.63;;;19.20;99.90;;;;;;4952875;29;20051;-73
2023/06/29 07:17:42;;;;;;;60.40;28.23;;;19.30;99.90;;;;;;5019077;28;20047;-73
2023/06/29 07:20:08;;;;;;;53.00;28.58;;;19.30;99.90;;;;;;5019239;28;20050;-73
2023/06/29 07:22:34;;;;;;;48.70;28.30;;;19.30;99.90;;;;;;4953005;28;20043;-73
2023/06/29 07:25:00;;;;;;;53.45;29.50;;;19.40;99.90;;;;;;4953069;29;20035;-73
2023/06/29 07:27:26;;;;;;;53.88;29.02;;;19.40;99.90;;;;;;5018747;28;20053;-73
2023/06/29 07:29:52;;;;;;;53.38;29.08;;;19.40;99.90;;;;;;5018855;28;20051;-73
2023/06/29 07:32:17;;;;;;;51.92;28.25;;;19.40;99.90;;;;;;4952968;28;20041;-73
2023/06/29 07:34:43;;;;;;;52.30;28.50;;;19.50;99.90;;;;;;5018735;28;20433;-73
2023/06/29 07:37:09;;;;;;;53.53;28.63;;;19.50;99.90;;;;;;5019610;28;20572;-73
2023/06/29 07:39:35;;;;;;;48.55;27.13;;;19.60;99.90;;;;;;4952887;28;20040;-73
2023/06/29 07:42:01;;;;;;;48.95;27.65;;;19.60;99.90;;;;;;4952621;29;20126;-72
2023/06/29 07:44:27;;;;;;;50.67;27.33;;;19.60;99.90;;;;;;5012164;28;20484;-73
2023/06/29 07:46:53;;;;;;;47.75;26.02;;;19.50;99.90;;;;;;4940087;29;20071;-73
2023/06/29 07:49:18;;;;;;;49.97;26.95;;;19.60;99.90;;;;;;4933083;29;20488;-72
2023/06/29 07:51:44;;;;;;;52.58;26.15;;;19.60;99.90;;;;;;4998473;28;20138;-73
2023/06/29 07:54:10;;;;;;;49.50;28.35;;;19.60;99.90;;;;;;4933337;29;20055;-75
2023/06/29 07:56:36;;;;;;;47.95;26.55;;;19.50;99.90;;;;;;4998783;28;20055;-75
2023/06/29 07:59:02;;;;;;;50.90;26.70;;;19.60;99.90;;;;;;5015133;28;20059;-74
2023/06/29 08:01:28;;;;;;;50.95;26.35;;;19.60;99.90;;;;;;4933341;29;20048;-73
2023/06/29 08:03:54;;;;;;;49.15;26.33;;;19.60;99.90;;;;;;4998732;28;20047;-73
2023/06/29 08:06:19;;;;;;;51.80;27.90;;;19.60;99.90;;;;;;4933390;28;20385;-73
2023/06/29 08:08:45;;;;;;;51.45;27.60;;;19.60;99.90;;;;;;4998536;28;20109;-73
2023/06/29 08:11:12;;;;;;;54.70;26.70;;;19.60;99.90;;;;;;4933109;29;20170;-72
2023/06/29 08:13:39;;;;;;;47.72;26.42;;;19.70;99.90;;;;;;4933139;29;20039;-72
2023/06/29 08:16:05;;;;;;;48.60;26.80;;;19.60;99.90;;;;;;4933016;28;20487;-71
2023/06/29 08:18:30;;;;;;;52.05;27.52;;;19.60;99.90;;;;;;4998825;28;20060;-72
2023/06/29 08:20:56;;;;;;;50.70;27.45;;;19.60;99.90;;;;;;4932833;29;20099;-72
2023/06/29 08:23:22;;;;;;;50.15;27.63;;;19.70;99.90;;;;;;4998405;28;20106;-71
2023/06/29 08:25:48;;;;;;;51.22;28.50;;;19.70;99.90;;;;;;4933034;29;20035;-72
2023/06/29 08:28:14;;;;;;;57.22;28.65;;;19.80;99.90;;;;;;4998764;28;20105;-72
2023/06/29 08:30:39;;;;;;;51.50;28.63;;;19.70;99.90;;;;;;4932705;29;20430;-72
2023/06/29 08:33:05;;;;;;;54.67;28.63;;;19.80;99.90;;;;;;4998303;28;20052;-74
2023/06/29 08:35:30;;;;;;;54.05;27.65;;;19.90;99.90;;;;;;4998315;28;20051;-73
2023/06/29 08:37:56;;;;;;;52.65;27.50;;;19.80;99.90;;;;;;4998453;28;20075;-74
2023/06/29 08:40:22;;;;;;;51.38;28.85;;;19.90;99.90;;;;;;4932906;29;20144;-72
2023/06/29 08:42:49;;;;;;;56.75;28.40;;;19.90;99.90;;;;;;4932524;29;20448;-73
2023/06/29 08:45:15;;;;;;;56.13;29.85;;;19.90;99.90;;;;;;4998205;28;20515;-73
2023/06/29 08:47:42;;;;;;;54.78;29.25;;;19.90;99.90;;;;;;4998357;28;20109;-73
2023/06/29 08:50:09;;;;;;;55.63;30.10;;;19.90;99.90;;;;;;4932414;29;20471;-73
2023/06/29 08:52:36;;;;;;;49.80;28.85;;;19.90;99.90;;;;;;4932354;29;20127;-73
2023/06/29 08:55:02;;;;;;;50.70;28.50;;;19.90;99.90;;;;;;4998329;28;20113;-73
2023/06/29 08:57:32;;;;;;;51.80;29.52;;;20.00;99.90;;;;;;4998337;28;20117;-73
2023/06/29 09:00:02;;;;;;;56.10;30.60;;;19.90;99.90;;;;;;4932294;29;20069;-73
2023/06/29 09:02:28;;;;;;;59.15;31.60;;;20.00;99.90;;;;;;4933531;29;20476;-73
2023/06/29 09:04:55;;;;;;;56.25;31.50;;;20.00;99.90;;;;;;5001605;28;20150;-73
2023/06/29 09:07:21;;;;;;;52.15;31.33;;;19.90;99.90;;;;;;4935730;29;20044;-73
2023/06/29 09:09:46;;;;;;;53.83;31.27;;;20.00;99.90;;;;;;5001427;28;20063;-73
2023/06/29 09:12:13;;;;;;;53.50;31.45;;;20.00;99.90;;;;;;4935827;28;20063;-73
2023/06/29 09:14:44;;;;;;;56.45;31.90;;;20.10;99.90;;;;;;4935254;29;20509;-73
2023/06/29 09:17:14;;;;;;;52.08;30.65;;;20.10;99.90;;;;;;4935645;29;20050;-74
2023/06/29 09:19:42;;;;;;;50.80;31.58;;;20.10;99.90;;;;;;5001293;28;20051;-73
2023/06/29 09:22:08;;;;;;;52.83;32.03;;;20.10;99.90;;;;;;4935434;29;20110;-73
2023/06/29 09:24:35;;;;;;;52.08;31.23;;;20.10;99.90;;;;;;4935286;29;20051;-73
2023/06/29 09:27:01;;;;;;;52.25;30.55;;;20.20;99.90;;;;;;4935668;28;20044;-73
2023/06/29 09:29:27;;;;;;;51.80;30.27;;;20.20;99.90;;;;;;4935044;29;20513;-73
2023/06/29 09:31:57;;;;;;;50.17;30.58;;;20.20;99.90;;;;;;5000946;28;20043;-73
2023/06/29 09:34:28;;;;;;;47.67;29.27;;;20.30;99.90;;;;;;4935326;28;20058;-73
2023/06/29 09:36:54;;;;;;;50.42;30.45;;;20.20;99.90;;;;;;4934098;29;20052;-73
2023/06/29 09:39:21;;;;;;;49.80;30.17;;;20.20;99.90;;;;;;5000741;28;20052;-73
2023/06/29 09:41:47;;;;;;;52.35;29.67;;;20.30;99.90;;;;;;4934993;28;20553;-73
2023/06/29 09:44:20;;;;;;;49.60;29.42;;;20.20;99.90;;;;;;5000828;28;20044;-73
2023/06/29 09:46:47;;;;;;;47.10;29.45;;;20.20;99.90;;;;;;5000879;28;20086;-73
2023/06/29 09:49:14;;;;;;;47.83;31.02;;;20.20;99.90;;;;;;4935185;29;20048;-73
2023/06/29 09:51:40;;;;;;;46.25;29.30;;;20.20;99.90;;;;;;4935115;29;20046;-73
2023/06/29 09:54:10;;;;;;;47.42;30.67;;;20.20;99.90;;;;;;5000487;28;20055;-73
2023/06/29 09:56:37;;;;;;;44.38;29.33;;;20.20;99.90;;;;;;5000875;28;20087;-73
2023/06/29 09:59:03;;;;;;;36.22;24.20;;;20.10;99.90;;;;;;4934965;28;20048;-73
2023/06/29 10:01:28;;;;;;;36.13;23.60;;;20.00;99.90;;;;;;5000615;28;20075;-73
2023/06/29 10:03:57;;;;;;;44.10;27.83;;;20.00;99.90;;;;;;5000366;28;20135;-73
2023/06/29 10:06:34;;;;;;;43.47;27.73;;;19.80;99.90;;;;;;4934543;29;20564;-72
2023/06/29 10:09:04;;;;;;;44.58;28.77;;;19.70;99.90;;;;;;5000347;28;20051;-72
2023/06/29 10:11:34;;;;;;;46.03;28.65;;;19.70;99.90;;;;;;4934820;29;20075;-72
2023/06/29 10:14:03;;;;;;;48.10;30.50;;;19.60;99.90;;;;;;4999573;28;20051;-72
2023/06/29 10:16:41;;;;;;;46.58;29.90;;;19.50;99.90;;;;;;5000346;28;20094;-72
2023/06/29 10:19:16;;;;;;;49.00;30.02;;;19.50;99.90;;;;;;5000389;28;20066;-72
2023/06/29 10:21:43;;;;;;;48.75;29.63;;;19.40;99.90;;;;;;4934486;29;20062;-73
2023/06/29 10:24:13;;;;;;;48.45;29.33;;;19.50;99.90;;;;;;5000290;28;20056;-73
2023/06/29 10:26:40;;;;;;;50.60;29.20;;;19.50;99.90;;;;;;5000233;28;20052;-73
2023/06/29 10:29:07;;;;;;;47.53;30.05;;;19.50;99.90;;;;;;4999838;28;20468;-73
2023/06/29 10:31:33;;;;;;;48.55;29.55;;;19.60;99.90;;;;;;4999977;28;20106;-74
2023/06/29 10:33:59;;;;;;;40.60;26.38;;;19.60;99.90;;;;;;4934641;29;20043;-73
2023/06/29 10:36:25;;;;;;;42.15;26.90;;;19.40;99.90;;;;;;5000431;28;20108;-73
2023/06/29 10:38:51;;;;;;;42.00;27.20;;;19.60;99.90;;;;;;4999858;28;20048;-73
2023/06/29 10:41:27;;;;;;;42.72;27.45;;;19.60;99.90;;;;;;5000238;28;20055;-73
2023/06/29 10:43:55;;;;;;;45.38;28.92;;;19.50;99.90;;;;;;4933907;29;20047;-73
2023/06/29 10:46:41;;;;;;;43.85;27.88;;;19.60;99.90;;;;;;4999571;28;20082;-74
2023/06/29 10:49:10;;;;;;;44.95;27.92;;;19.50;99.90;;;;;;4999790;28;20051;-73
2023/06/29 10:51:50;;;;;;;44.72;29.08;;;19.50;99.90;;;;;;5005824;28;20168;-73
2023/06/29 10:54:16;;;;;;;46.08;28.50;;;19.40;99.90;;;;;;5018436;28;20078;-73
2023/06/29 10:57:05;;;;;;;44.70;28.85;;;19.40;99.90;;;;;;5032873;28;20473;-73
2023/06/29 10:59:32;;;;;;;45.85;30.75;;;19.40;99.90;;;;;;5053720;28;20048;-73
2023/06/29 11:01:58;;;;;;;49.05;29.13;;;19.40;99.90;;;;;;5035742;28;20492;-73
2023/06/29 11:04:24;;;;;;;47.83;30.80;;;19.50;99.90;;;;;;5054054;28;20045;-73
2023/06/29 11:06:50;;;;;;;50.17;31.33;;;19.50;99.90;;;;;;5053841;28;20076;-73
2023/06/29 11:09:16;;;;;;;48.72;30.38;;;19.50;99.90;;;;;;5053538;28;20598;-73
2023/06/29 11:11:45;;;;;;;49.05;31.80;;;19.60;99.90;;;;;;5053851;28;20044;-73
2023/06/29 11:14:12;;;;;;;50.38;31.40;;;19.60;99.90;;;;;;5035660;28;20045;-73
2023/06/29 11:16:39;;;;;;;50.22;31.48;;;19.70;99.90;;;;;;5053618;28;20127;-73
2023/06/29 11:19:05;;;;;;;52.83;32.90;;;19.70;99.90;;;;;;5053806;28;20120;-73
2023/06/29 11:21:31;;;;;;;54.60;33.05;;;19.70;99.90;;;;;;5053633;28;20037;-73
2023/06/29 11:23:57;;;;;;;52.20;33.25;;;19.80;99.90;;;;;;5053037;28;20067;-73
2023/06/29 11:26:23;;;;;;;54.00;33.25;;;19.80;99.90;;;;;;5052852;28;20064;-73
2023/06/29 11:28:53;;;;;;;55.10;33.35;;;19.90;99.90;;;;;;5053554;28;20048;-73
2023/06/29 11:31:20;;;;;;;56.75;34.83;;;19.80;99.90;;;;;;5035771;28;20044;-73
2023/06/29 11:33:49;;;;;;;54.70;33.88;;;19.80;99.90;;;;;;4952106;28;20063;-74
2023/06/29 11:36:25;;;;;;;49.95;32.88;;;19.90;99.90;;;;;;4998958;28;20043;-73
2023/06/29 11:39:07;;;;;;;56.17;34.83;;;19.90;99.90;;;;;;5038220;28;20051;-74
2023/06/29 11:41:33;;;;;;;54.42;33.85;;;20.10;99.90;;;;;;5038021;28;20047;-74
2023/06/29 11:44:00;;;;;;;55.58;33.97;;;20.20;99.90;;;;;;4971814;28;20104;-73
2023/06/29 11:46:27;;;;;;;52.60;33.72;;;20.30;99.90;;;;;;4971653;28;20050;-73
2023/06/29 11:48:56;;;;;;;55.30;35.13;;;20.40;99.90;;;;;;4971781;28;20035;-72
2023/06/29 11:51:25;;;;;;;53.35;33.75;;;20.40;99.90;;;;;;4971134;28;20538;-72
2023/06/29 11:53:55;;;;;;;54.92;34.25;;;20.50;99.90;;;;;;5038053;28;20051;-72
2023/06/29 11:56:38;;;;;;;55.47;35.25;;;20.40;99.90;;;;;;5038395;28;20078;-74
2023/06/29 11:59:12;;;;;;;55.40;35.45;;;20.60;99.90;;;;;;4971711;28;20046;-73
2023/06/29 12:01:38;;;;;;;56.40;35.22;;;20.60;99.90;;;;;;5038062;28;20490;-73
2023/06/29 12:04:05;;;;;;;54.47;35.83;;;20.60;99.90;;;;;;5038087;28;20039;-73
2023/06/29 12:06:32;;;;;;;54.00;34.00;;;20.70;99.90;;;;;;4971213;28;20046;-72
2023/06/29 12:08:59;;;;;;;54.67;34.15;;;20.70;99.90;;;;;;5038099;28;20510;-74
2023/06/29 12:11:26;;;;;;;51.85;33.08;;;20.80;99.90;;;;;;5037925;28;20054;-73
2023/06/29 12:13:53;;;;;;;53.40;35.30;;;20.80;99.90;;;;;;5037792;28;20470;-73
2023/06/29 12:16:22;;;;;;;53.63;34.03;;;20.80;99.90;;;;;;5038647;28;20051;-73
2023/06/29 12:18:48;;;;;;;55.03;34.10;;;20.80;99.90;;;;;;4971224;28;20047;-72
2023/06/29 12:21:19;;;;;;;55.05;33.65;;;20.80;99.90;;;;;;4971510;28;20054;-73
2023/06/29 12:23:44;;;;;;;52.30;33.47;;;20.90;99.90;;;;;;4971086;28;20490;-73